createdAt,value
2023-01-09T00:00:11.803Z,19.77
2023-01-09T00:06:15.249Z,19.97
2023-01-09T00:12:17.743Z,22.13
2023-01-09T00:18:20.182Z,22.27
2023-01-09T00:24:22.674Z,15.80
2023-01-09T00:30:25.171Z,18.90
2023-01-09T00:36:28.598Z,19.47
2023-01-09T00:42:36.064Z,28.30
2023-01-09T00:48:41.048Z,17.87
2023-01-09T00:54:46.022Z,18.97
2023-01-09T01:00:48.472Z,20.30
2023-01-09T01:07:11.999Z,17.57
2023-01-09T01:13:14.460Z,15.43
2023-01-09T01:19:16.681Z,15.67
2023-01-09T01:25:18.579Z,15.97
2023-01-09T01:31:20.826Z,22.03
2023-01-09T01:37:27.353Z,16.83
2023-01-09T01:43:49.894Z,13.50
2023-01-09T01:49:53.347Z,18.37
2023-01-09T01:56:11.884Z,20.43
2023-01-09T02:02:14.469Z,23.23
2023-01-09T02:08:17.801Z,14.47
2023-01-09T02:14:26.327Z,12.30
2023-01-09T02:20:55.753Z,14.67
2023-01-09T02:27:23.829Z,14.43
2023-01-09T02:34:02.044Z,10.73
2023-01-09T02:40:16.556Z,11.17
2023-01-09T02:46:22.004Z,11.23
2023-01-09T02:53:21.777Z,8.70
2023-01-09T02:59:35.285Z,11.17
2023-01-09T03:05:57.818Z,10.30
2023-01-09T03:12:08.379Z,10.93
2023-01-09T03:18:14.861Z,11.20
2023-01-09T03:24:17.277Z,13.30
2023-01-09T03:30:19.736Z,10.07
2023-01-09T03:36:24.205Z,17.53
2023-01-09T03:42:26.703Z,10.70
2023-01-09T03:48:29.151Z,8.10
2023-01-09T03:54:31.614Z,15.90
2023-01-09T04:00:34.081Z,14.20
2023-01-09T04:06:36.521Z,15.07
2023-01-09T04:12:41.002Z,14.93
2023-01-09T04:18:43.445Z,12.63
2023-01-09T04:24:45.900Z,15.50
2023-01-09T04:30:48.373Z,14.70
2023-01-09T04:36:50.532Z,17.80
2023-01-09T04:42:54.290Z,17.53
2023-01-09T04:48:57.742Z,23.90
2023-01-09T04:55:00.194Z,22.27
2023-01-09T05:01:02.829Z,23.43
2023-01-09T05:07:05.099Z,24.20
2023-01-09T05:13:07.578Z,26.50
2023-01-09T05:19:10.036Z,26.17
2023-01-09T05:25:12.473Z,26.27
2023-01-09T05:31:14.966Z,26.90
2023-01-09T05:37:17.368Z,20.87
2023-01-09T05:43:19.077Z,30.60
2023-01-09T05:49:25.999Z,24.90
2023-01-09T05:55:28.788Z,25.57
2023-01-09T06:01:34.366Z,28.47
2023-01-09T06:07:39.881Z,35.67
2023-01-09T06:13:42.221Z,28.77
2023-01-09T06:19:44.703Z,23.23
2023-01-09T06:25:47.141Z,29.07
2023-01-09T06:31:50.649Z,23.97
2023-01-09T06:37:53.128Z,21.43
2023-01-09T06:43:55.053Z,27.97
2023-01-09T06:49:59.012Z,29.63
2023-01-09T06:56:04.393Z,29.40
2023-01-09T07:02:07.007Z,30.07
2023-01-09T07:08:17.474Z,29.17
2023-01-09T07:14:19.460Z,28.53
2023-01-09T07:20:25.423Z,25.77
2023-01-09T07:26:29.906Z,26.97
2023-01-09T07:32:35.359Z,27.20
2023-01-09T07:38:37.805Z,29.33
2023-01-09T07:44:42.260Z,33.33
2023-01-09T07:50:44.757Z,33.67
2023-01-09T07:56:47.220Z,33.13
2023-01-09T08:02:55.809Z,33.67
2023-01-09T08:08:59.214Z,32.90
2023-01-09T08:15:01.655Z,33.60
2023-01-09T08:21:04.110Z,40.77
2023-01-09T08:27:06.566Z,67.10
2023-01-09T08:33:08.387Z,80.60
2023-01-09T08:39:11.505Z,69.20
2023-01-09T08:45:33.089Z,60.27
2023-01-09T08:51:35.546Z,32.47
2023-01-09T08:57:39.398Z,25.03
2023-01-09T09:03:41.472Z,22.30
2023-01-09T09:09:43.939Z,22.10
2023-01-09T09:15:48.230Z,22.83
2023-01-09T09:21:59.951Z,23.63
2023-01-09T09:28:05.418Z,24.43
2023-01-09T09:34:08.879Z,30.10
2023-01-09T09:40:22.793Z,26.80
2023-01-09T09:46:24.999Z,21.57
2023-01-09T09:52:55.437Z,20.00
2023-01-09T09:59:11.963Z,19.83
2023-01-09T10:05:46.355Z,18.97
2023-01-09T10:12:18.233Z,18.20
2023-01-09T10:18:36.678Z,16.33
2023-01-09T10:25:04.240Z,19.83
2023-01-09T10:31:25.759Z,17.90
2023-01-09T10:37:37.279Z,17.10
2023-01-09T10:43:53.537Z,18.30
2023-01-09T10:50:00.252Z,14.23
2023-01-09T10:56:24.306Z,14.03
2023-01-09T11:02:36.323Z,11.80
2023-01-09T11:08:42.776Z,13.63
2023-01-09T11:14:47.237Z,15.43
2023-01-09T11:20:49.708Z,13.43
2023-01-09T11:27:20.335Z,17.13
2023-01-09T11:33:35.109Z,15.47
2023-01-09T11:39:51.308Z,15.80
2023-01-09T11:46:02.187Z,12.70
2023-01-09T11:52:28.952Z,13.47
2023-01-09T11:58:34.784Z,13.27
2023-01-09T12:05:09.395Z,14.53
2023-01-09T12:11:45.970Z,14.60
2023-01-09T12:18:24.602Z,14.97
2023-01-09T12:24:37.091Z,17.63
2023-01-09T12:30:53.347Z,19.43
2023-01-09T12:37:12.169Z,15.93
2023-01-09T12:43:39.696Z,16.80
2023-01-09T12:50:21.298Z,18.07
2023-01-09T12:56:31.804Z,17.63
2023-01-09T13:02:51.648Z,14.90
2023-01-09T13:09:17.844Z,16.70
2023-01-09T13:15:31.388Z,14.87
2023-01-09T13:21:36.997Z,17.23
2023-01-09T13:27:41.197Z,19.80
2023-01-09T13:33:57.838Z,13.90
2023-01-09T13:40:06.377Z,13.50
2023-01-09T13:46:14.804Z,19.17
2023-01-09T13:52:45.453Z,13.83
2023-01-09T13:58:56.932Z,16.10
2023-01-09T14:04:59.377Z,19.67
2023-01-09T14:11:03.871Z,17.73
2023-01-09T14:17:24.408Z,13.90
2023-01-09T14:30:27.564Z,17.17
2023-01-09T14:36:30.005Z,17.23
2023-01-09T14:42:34.541Z,14.60
2023-01-09T14:48:39.970Z,19.20
2023-01-09T14:54:44.449Z,14.67
2023-01-09T15:01:08.042Z,19.13
2023-01-09T15:07:22.493Z,15.17
2023-01-09T15:13:48.094Z,19.43
2023-01-09T15:19:50.504Z,23.23
2023-01-09T15:25:52.970Z,26.00
2023-01-09T15:32:10.513Z,20.27
2023-01-09T15:38:16.467Z,19.27
2023-01-09T15:44:32.454Z,21.43
2023-01-09T15:50:39.929Z,22.60
2023-01-09T15:56:45.409Z,32.00
2023-01-09T16:03:06.943Z,33.07
2023-01-09T16:09:24.483Z,20.43
2023-01-09T16:15:27.928Z,32.17
2023-01-09T16:21:35.416Z,31.80
2023-01-09T16:27:37.891Z,31.00
2023-01-09T16:33:46.376Z,20.13
2023-01-09T16:40:06.919Z,33.77
2023-01-09T16:46:09.517Z,33.30
2023-01-09T16:52:18.850Z,15.23
2023-01-09T16:58:32.359Z,20.63
2023-01-09T17:04:34.821Z,29.43
2023-01-09T17:10:37.255Z,36.43
2023-01-09T17:16:41.795Z,26.17
2023-01-09T17:22:44.211Z,32.23
2023-01-09T17:28:51.734Z,39.63
2023-01-09T17:34:54.149Z,33.20
2023-01-09T17:40:56.628Z,71.80
2023-01-09T17:46:59.108Z,44.07
2023-01-09T17:53:01.558Z,39.87
2023-01-09T17:59:04.074Z,26.07
2023-01-09T18:05:06.505Z,69.53
2023-01-09T18:11:15.028Z,20.17
2023-01-09T18:17:17.149Z,19.70
2023-01-09T18:23:20.907Z,13.90
2023-01-09T18:29:22.906Z,16.63
2023-01-09T18:35:27.184Z,17.37
2023-01-09T18:41:31.709Z,14.70
2023-01-09T18:47:33.768Z,17.23
2023-01-09T18:53:36.239Z,13.20
2023-01-09T18:59:39.709Z,11.43
2023-01-09T19:05:42.171Z,10.57
2023-01-09T19:11:49.438Z,15.50
2023-01-09T19:17:51.909Z,16.03
2023-01-09T19:24:00.138Z,15.83
2023-01-09T19:30:03.129Z,13.33
2023-01-09T19:36:06.603Z,15.63
2023-01-09T19:42:09.069Z,18.57
2023-01-09T19:48:14.548Z,17.57
2023-01-09T19:54:16.977Z,11.30
2023-01-09T20:00:19.431Z,15.27
2023-01-09T20:06:26.976Z,9.77
2023-01-09T20:12:33.436Z,14.60
2023-01-09T20:18:39.287Z,13.83
2023-01-09T20:24:43.508Z,9.83
2023-01-09T20:30:48.880Z,20.73
2023-01-09T20:36:51.351Z,14.27
2023-01-09T20:42:57.131Z,10.63
2023-01-09T20:49:12.335Z,14.57
2023-01-09T20:55:17.098Z,11.97
2023-01-09T21:01:29.427Z,15.60
2023-01-09T21:07:34.766Z,17.40
2023-01-09T21:13:44.289Z,9.90
2023-01-09T21:19:46.728Z,13.27
2023-01-09T21:25:58.060Z,12.00
2023-01-09T21:32:00.734Z,18.07
2023-01-09T21:38:03.172Z,15.83
2023-01-09T21:44:25.910Z,9.17
2023-01-09T21:50:31.185Z,12.50
2023-01-09T21:56:35.724Z,11.37
2023-01-09T22:02:41.263Z,11.20
2023-01-09T22:08:43.597Z,16.40
2023-01-09T22:14:46.051Z,8.70
2023-01-09T22:20:51.510Z,16.00
2023-01-09T22:26:53.464Z,15.50
2023-01-09T22:32:55.389Z,12.70
2023-01-09T22:39:04.248Z,14.00
2023-01-09T22:45:07.334Z,10.97
2023-01-09T22:51:19.865Z,11.50
2023-01-09T22:57:25.399Z,12.13
2023-01-09T23:03:27.537Z,10.00
2023-01-09T23:09:32.675Z,14.60
2023-01-09T23:15:34.691Z,13.70
2023-01-09T23:21:38.157Z,9.70
2023-01-09T23:27:48.157Z,9.23
2023-01-09T23:33:58.801Z,11.57
2023-01-09T23:40:03.651Z,10.83
2023-01-09T23:46:06.125Z,13.50
2023-01-09T23:52:09.208Z,14.47
2023-01-09T23:58:12.029Z,18.23
